createdAt,value
2022-08-09T00:00:06.058Z,100804.13
2022-08-09T00:02:34.676Z,100805.34
2022-08-09T00:06:16.302Z,100810.34
2022-08-09T00:07:52.388Z,100805.53
2022-08-09T00:10:24.367Z,100805.34
2022-08-09T00:12:53.345Z,100804.22
2022-08-09T00:15:26.799Z,100809.19
2022-08-09T00:18:11.185Z,100813.84
2022-08-09T00:20:42.293Z,100804.09
2022-08-09T00:23:55.775Z,100805.69
2022-08-09T00:26:04.922Z,100803.13
2022-08-09T00:28:34.749Z,100808.78
2022-08-09T00:31:30.432Z,100806.78
2022-08-09T00:33:53.978Z,100821.16
2022-08-09T00:36:29.514Z,100804.63
2022-08-09T00:38:58.892Z,100814.41
2022-08-09T00:44:14.425Z,100821.47
2022-08-09T00:44:24.851Z,100810.88
2022-08-09T00:47:05.133Z,100804.06
2022-08-09T00:49:34.919Z,100810.47
2022-08-09T00:52:15.985Z,100805.34
2022-08-09T00:54:46.291Z,100807.78
2022-08-09T00:57:13.831Z,100807.44
2022-08-09T00:59:52.436Z,100809.03
2022-08-09T01:02:26.890Z,100809.22
2022-08-09T01:05:22.399Z,100803.06
2022-08-09T01:08:27.666Z,100807.03
2022-08-09T01:10:58.170Z,100805.00
2022-08-09T01:13:42.013Z,100807.22
2022-08-09T01:16:30.443Z,100812.22
2022-08-09T01:19:04.800Z,100807.25
2022-08-09T01:21:51.294Z,100809.13
2022-08-09T01:24:53.486Z,100801.94
2022-08-09T01:27:23.884Z,100809.13
2022-08-09T01:29:55.537Z,100814.28
2022-08-09T01:32:38.972Z,100813.22
2022-08-09T01:35:38.770Z,100812.53
2022-08-09T01:38:28.205Z,100813.19
2022-08-09T01:41:05.199Z,100814.88
2022-08-09T01:43:50.183Z,100810.97
2022-08-09T01:46:32.413Z,100819.16
2022-08-09T01:49:10.195Z,100819.50
2022-08-09T01:51:53.035Z,100813.94
2022-08-09T01:54:25.841Z,100819.56
2022-08-09T01:56:55.294Z,100812.03
2022-08-09T01:59:24.514Z,100815.81
2022-08-09T02:02:01.216Z,100811.72
2022-08-09T02:04:30.300Z,100814.63
2022-08-09T02:07:18.120Z,100810.53
2022-08-09T02:10:10.405Z,100820.81
2022-08-09T02:12:39.340Z,100816.53
2022-08-09T02:15:11.987Z,100810.75
2022-08-09T02:18:00.908Z,100816.72
2022-08-09T02:20:36.610Z,100821.84
2022-08-09T02:23:09.051Z,100823.75
2022-08-09T02:25:42.182Z,100826.28
2022-08-09T02:28:38.981Z,100816.38
2022-08-09T02:31:10.702Z,100826.78
2022-08-09T02:34:07.514Z,100821.81
2022-08-09T02:36:32.357Z,100824.56
2022-08-09T02:39:03.946Z,100826.75
2022-08-09T02:41:38.617Z,100833.72
2022-08-09T02:44:13.621Z,100832.19
2022-08-09T02:46:58.646Z,100838.28
2022-08-09T02:49:38.890Z,100838.94
2022-08-09T02:52:13.129Z,100832.38
2022-08-09T02:54:53.870Z,100845.06
2022-08-09T02:57:23.784Z,100854.47
2022-08-09T03:00:20.766Z,100834.63
2022-08-09T03:02:58.059Z,100839.81
2022-08-09T03:05:27.051Z,100849.34
2022-08-09T03:07:57.012Z,100835.53
2022-08-09T03:10:25.884Z,100847.03
2022-08-09T03:12:55.260Z,100846.13
2022-08-09T03:15:23.987Z,100840.31
2022-08-09T03:18:09.850Z,100844.88
2022-08-09T03:20:38.519Z,100838.53
2022-08-09T03:23:15.110Z,100837.63
2022-08-09T03:26:03.016Z,100830.66
2022-08-09T03:28:31.657Z,100833.66
2022-08-09T03:31:10.203Z,100831.81
2022-08-09T03:33:54.932Z,100832.31
2022-08-09T03:36:27.860Z,100833.56
2022-08-09T03:38:56.522Z,100835.13
2022-08-09T03:41:30.087Z,100832.84
2022-08-09T03:44:12.220Z,100834.97
2022-08-09T03:46:39.682Z,100836.44
2022-08-09T03:49:09.027Z,100822.97
2022-08-09T03:51:57.485Z,100825.03
2022-08-09T03:54:32.453Z,100837.38
2022-08-09T03:57:04.425Z,100835.25
2022-08-09T03:59:54.721Z,100830.44
2022-08-09T04:02:28.488Z,100831.66
2022-08-09T04:05:05.676Z,100832.97
2022-08-09T04:07:52.776Z,100830.84
2022-08-09T04:10:28.777Z,100832.56
2022-08-09T04:13:01.073Z,100845.63
2022-08-09T04:15:52.326Z,100835.44
2022-08-09T04:18:21.268Z,100830.66
2022-08-09T04:20:51.232Z,100839.19
2022-08-09T04:23:24.437Z,100831.13
2022-08-09T04:25:54.243Z,100823.34
2022-08-09T04:28:34.121Z,100819.25
2022-08-09T04:31:09.128Z,100824.88
2022-08-09T04:33:47.357Z,100831.03
2022-08-09T04:36:25.892Z,100821.53
2022-08-09T04:38:54.243Z,100831.56
2022-08-09T04:41:23.629Z,100829.81
2022-08-09T04:44:05.066Z,100831.50
2022-08-09T04:46:56.911Z,100831.28
2022-08-09T04:49:30.127Z,100833.75
2022-08-09T04:52:11.157Z,100855.94
2022-08-09T04:54:38.823Z,100839.69
2022-08-09T04:57:09.431Z,100828.50
2022-08-09T04:59:39.795Z,100821.75
2022-08-09T05:02:07.663Z,100823.06
2022-08-09T05:04:36.792Z,100829.09
2022-08-09T05:07:05.824Z,100829.94
2022-08-09T05:09:45.339Z,100826.03
2022-08-09T05:12:16.392Z,100832.22
2022-08-09T05:14:43.942Z,100826.94
2022-08-09T05:18:36.706Z,100829.25
2022-08-09T05:20:01.131Z,100812.63
2022-08-09T05:22:34.954Z,100820.13
2022-08-09T05:25:17.376Z,100818.81
2022-08-09T05:27:48.089Z,100829.78
2022-08-09T05:30:17.732Z,100829.22
2022-08-09T05:32:50.900Z,100825.78
2022-08-09T05:35:18.901Z,100833.56
2022-08-09T05:37:51.268Z,100821.00
2022-08-09T05:40:19.760Z,100811.06
2022-08-09T05:42:49.969Z,100828.16
2022-08-09T05:45:20.381Z,100825.16
2022-08-09T05:47:59.229Z,100824.25
2022-08-09T05:50:49.098Z,100818.50
2022-08-09T05:53:21.710Z,100819.66
2022-08-09T05:56:05.823Z,100823.53
2022-08-09T05:58:35.379Z,100827.31
2022-08-09T06:01:04.468Z,100818.44
2022-08-09T06:03:34.755Z,100824.50
2022-08-09T06:06:22.370Z,100819.75
2022-08-09T06:08:55.092Z,100815.72
2022-08-09T06:11:41.014Z,100806.16
2022-08-09T06:14:17.609Z,100807.28
2022-08-09T06:16:52.355Z,100811.38
2022-08-09T06:19:23.460Z,100814.25
2022-08-09T06:21:58.257Z,100813.91
2022-08-09T06:24:27.860Z,100809.00
2022-08-09T06:26:56.613Z,100811.88
2022-08-09T06:29:27.085Z,100818.03
2022-08-09T06:32:17.196Z,100811.44
2022-08-09T06:34:44.828Z,100820.09
2022-08-09T06:37:13.944Z,100827.13
2022-08-09T06:39:58.232Z,100822.16
2022-08-09T06:42:28.392Z,100821.66
2022-08-09T06:45:00.298Z,100813.28
2022-08-09T06:47:41.899Z,100813.94
2022-08-09T06:50:16.633Z,100820.66
2022-08-09T06:52:48.730Z,100815.63
2022-08-09T06:55:28.413Z,100812.25
2022-08-09T06:58:05.887Z,100822.31
2022-08-09T07:00:56.314Z,100821.66
2022-08-09T07:03:29.061Z,100814.13
2022-08-09T07:06:04.780Z,100807.53
2022-08-09T07:08:39.671Z,100817.72
2022-08-09T07:11:12.461Z,100815.53
2022-08-09T07:13:45.562Z,100805.28
2022-08-09T07:16:47.945Z,100825.34
2022-08-09T07:19:23.377Z,100814.38
2022-08-09T07:21:57.783Z,100814.81
2022-08-09T07:24:32.792Z,100820.00
2022-08-09T07:27:27.274Z,100813.72
2022-08-09T07:30:06.118Z,100814.06
2022-08-09T07:32:34.973Z,100823.13
2022-08-09T07:35:11.815Z,100826.78
2022-08-09T07:37:45.569Z,100830.88
2022-08-09T07:40:18.558Z,100817.63
2022-08-09T07:43:00.086Z,100822.88
2022-08-09T07:45:41.044Z,100821.53
2022-08-09T07:48:25.836Z,100818.16
2022-08-09T07:51:10.327Z,100829.63
2022-08-09T07:54:05.354Z,100825.88
2022-08-09T07:56:45.157Z,100825.78
2022-08-09T07:59:33.810Z,100827.50
2022-08-09T08:02:09.071Z,100813.03
2022-08-09T08:04:37.442Z,100815.91
2022-08-09T08:07:15.394Z,100819.06
2022-08-09T08:10:05.709Z,100813.25
2022-08-09T08:12:43.827Z,100815.69
2022-08-09T08:15:17.159Z,100814.81
2022-08-09T08:17:54.719Z,100811.19
2022-08-09T08:20:29.137Z,100813.97
2022-08-09T08:23:03.486Z,100814.59
2022-08-09T08:25:45.871Z,100814.50
2022-08-09T08:28:17.951Z,100823.66
2022-08-09T08:30:55.458Z,100814.25
2022-08-09T08:33:24.704Z,100812.69
2022-08-09T08:35:59.765Z,100808.09
2022-08-09T08:38:29.775Z,100802.19
2022-08-09T08:40:59.350Z,100805.06
2022-08-09T08:43:28.033Z,100798.31
2022-08-09T08:46:31.576Z,100792.75
2022-08-09T08:48:51.162Z,100791.44
2022-08-09T08:51:21.255Z,100790.59
2022-08-09T08:54:04.400Z,100801.06
2022-08-09T08:56:38.045Z,100796.25
2022-08-09T08:59:19.720Z,100795.63
2022-08-09T09:01:52.789Z,100793.47
2022-08-09T09:04:37.748Z,100790.19
2022-08-09T09:07:20.971Z,100783.66
2022-08-09T09:10:02.269Z,100782.47
2022-08-09T09:12:36.521Z,100778.22
2022-08-09T09:15:06.485Z,100783.13
2022-08-09T09:17:49.619Z,100781.53
2022-08-09T09:20:25.875Z,100777.78
2022-08-09T09:23:01.679Z,100775.94
2022-08-09T09:26:03.840Z,100778.97
2022-08-09T09:28:39.268Z,100774.44
2022-08-09T09:32:03.415Z,100771.03
2022-08-09T09:34:14.685Z,100776.94
2022-08-09T09:36:51.010Z,100771.31
2022-08-09T09:39:50.259Z,100771.63
2022-08-09T09:42:30.903Z,100759.44
2022-08-09T09:45:03.374Z,100765.41
2022-08-09T09:47:32.499Z,100768.69
2022-08-09T09:50:14.266Z,100767.53
2022-08-09T09:52:56.332Z,100763.84
2022-08-09T09:55:31.310Z,100763.66
2022-08-09T09:58:18.739Z,100757.94
2022-08-09T10:01:01.644Z,100770.31
2022-08-09T10:03:39.717Z,100752.63
2022-08-09T10:06:07.725Z,100760.38
2022-08-09T10:08:54.245Z,100760.31
2022-08-09T10:11:59.573Z,100761.63
2022-08-09T10:14:31.858Z,100756.41
2022-08-09T10:17:39.609Z,100758.13
2022-08-09T10:20:00.712Z,100755.97
2022-08-09T10:22:57.228Z,100752.97
2022-08-09T10:25:34.927Z,100756.59
2022-08-09T10:28:17.196Z,100752.44
2022-08-09T10:34:08.422Z,100752.34
2022-08-09T10:36:24.005Z,100750.56
2022-08-09T10:39:00.286Z,100752.63
2022-08-09T10:41:30.101Z,100757.94
2022-08-09T10:44:01.999Z,100751.84
2022-08-09T10:48:12.524Z,100747.81
2022-08-09T10:50:05.875Z,100747.09
2022-08-09T10:52:45.599Z,100737.41
2022-08-09T10:55:25.746Z,100732.47
2022-08-09T10:57:55.654Z,100739.78
2022-08-09T11:00:29.288Z,100739.84
2022-08-09T11:03:18.023Z,100733.81
2022-08-09T11:06:16.227Z,100734.22
2022-08-09T11:08:47.709Z,100732.06
2022-08-09T11:11:22.008Z,100742.25
2022-08-09T11:14:28.999Z,100720.81
2022-08-09T11:17:01.205Z,100719.19
2022-08-09T11:20:10.637Z,100721.47
2022-08-09T11:22:46.079Z,100722.91
2022-08-09T11:25:48.001Z,100727.94
2022-08-09T11:29:00.518Z,100718.78
2022-08-09T11:31:52.930Z,100715.75
2022-08-09T11:34:31.798Z,100717.13
2022-08-09T11:37:01.022Z,100718.78
2022-08-09T11:39:33.759Z,100714.63
2022-08-09T11:42:14.842Z,100709.97
2022-08-09T11:44:45.894Z,100708.59
2022-08-09T11:47:15.604Z,100706.34
2022-08-09T11:50:56.927Z,100713.59
2022-08-09T11:53:15.193Z,100697.97
2022-08-09T11:56:03.007Z,100701.06
2022-08-09T11:58:50.054Z,100703.56
2022-08-09T12:02:15.926Z,100695.50
2022-08-09T12:04:20.897Z,100693.56
2022-08-09T12:07:08.217Z,100695.28
2022-08-09T12:09:50.343Z,100690.53
2022-08-09T12:12:29.226Z,100683.56
2022-08-09T12:15:07.465Z,100688.31
2022-08-09T12:17:42.252Z,100689.41
2022-08-09T12:20:25.772Z,100683.03
2022-08-09T12:23:04.701Z,100680.88
2022-08-09T12:25:37.339Z,100673.56
2022-08-09T12:29:10.435Z,100678.31
2022-08-09T12:31:30.951Z,100674.97
2022-08-09T12:34:17.369Z,100673.31
2022-08-09T12:36:52.699Z,100661.56
2022-08-09T12:39:30.463Z,100667.72
2022-08-09T12:42:16.888Z,100672.75
2022-08-09T12:44:52.274Z,100667.75
2022-08-09T12:47:22.785Z,100662.16
2022-08-09T12:50:24.137Z,100672.22
2022-08-09T12:53:38.779Z,100660.19
2022-08-09T12:56:43.409Z,100662.97
2022-08-09T12:59:10.612Z,100666.84
2022-08-09T13:02:05.258Z,100664.06
2022-08-09T13:04:38.829Z,100664.06
2022-08-09T13:07:19.685Z,100653.78
2022-08-09T13:09:55.785Z,100645.41
2022-08-09T13:13:11.253Z,100650.13
2022-08-09T13:15:36.584Z,100656.84
2022-08-09T13:18:17.265Z,100648.22
2022-08-09T13:22:33.925Z,100650.16
2022-08-09T13:24:06.723Z,100649.59
2022-08-09T13:26:55.463Z,100648.19
2022-08-09T13:30:03.230Z,100641.19
2022-08-09T13:32:29.240Z,100636.72
2022-08-09T13:35:06.626Z,100641.50
2022-08-09T13:37:51.139Z,100642.84
2022-08-09T13:41:55.681Z,100647.63
2022-08-09T13:43:15.670Z,100641.22
2022-08-09T13:46:44.375Z,100637.56
2022-08-09T13:48:42.281Z,100635.88
2022-08-09T13:51:12.782Z,100630.84
2022-08-09T13:53:51.941Z,100637.25
2022-08-09T13:56:43.173Z,100622.47
2022-08-09T13:59:25.364Z,100628.56
2022-08-09T14:02:07.673Z,100627.75
2022-08-09T14:04:49.507Z,100623.59
2022-08-09T14:07:41.981Z,100630.59
2022-08-09T14:10:46.316Z,100627.78
2022-08-09T14:13:12.111Z,100623.91
2022-08-09T14:16:07.166Z,100631.69
2022-08-09T14:18:51.723Z,100630.22
2022-08-09T14:21:34.277Z,100622.94
2022-08-09T14:24:18.299Z,100627.34
2022-08-09T14:27:20.523Z,100626.75
2022-08-09T14:30:35.651Z,100625.91
2022-08-09T14:33:11.189Z,100622.81
2022-08-09T14:35:52.838Z,100619.03
2022-08-09T14:38:22.071Z,100622.94
2022-08-09T14:43:53.738Z,100618.63
2022-08-09T14:49:26.047Z,100620.28
2022-08-09T14:52:05.533Z,100620.47
2022-08-09T14:55:08.429Z,100616.56
2022-08-09T14:57:52.582Z,100614.06
2022-08-09T15:00:33.500Z,100610.66
2022-08-09T16:02:56.923Z,100604.25
2022-08-09T16:05:47.251Z,100609.88
2022-08-09T16:08:36.290Z,100616.28
2022-08-09T16:11:20.020Z,100609.81
2022-08-09T16:14:05.136Z,100615.78
2022-08-09T16:16:38.076Z,100608.38
2022-08-09T16:19:15.077Z,100616.25
2022-08-09T16:21:48.710Z,100615.56
2022-08-09T16:24:32.879Z,100614.13
2022-08-09T16:27:05.158Z,100609.88
2022-08-09T16:29:38.032Z,100613.88
2022-08-09T16:32:34.990Z,100610.84
2022-08-09T16:35:39.208Z,100618.06
2022-08-09T16:38:06.687Z,100618.66
2022-08-09T16:40:42.558Z,100619.06
2022-08-09T16:43:14.406Z,100624.63
2022-08-09T16:45:45.948Z,100623.84
2022-08-09T16:48:42.405Z,100618.19
2022-08-09T16:51:23.532Z,100624.03
2022-08-09T16:57:03.925Z,100628.84
2022-08-09T16:59:35.850Z,100626.81
2022-08-09T17:02:23.226Z,100635.53
2022-08-09T17:04:55.613Z,100633.63
2022-08-09T17:08:46.753Z,100636.34
2022-08-09T17:10:22.845Z,100630.53
2022-08-09T17:12:54.204Z,100637.28
2022-08-09T17:15:59.338Z,100636.56
2022-08-09T17:18:17.898Z,100641.25
2022-08-09T17:20:57.742Z,100650.06
2022-08-09T17:23:37.069Z,100659.34
2022-08-09T17:26:29.427Z,100659.19
2022-08-09T17:29:11.681Z,100661.56
2022-08-09T17:31:53.056Z,100667.13
2022-08-09T17:35:04.429Z,100658.22
2022-08-09T17:37:19.247Z,100653.84
2022-08-09T17:39:55.366Z,100658.09
2022-08-09T17:42:48.453Z,100671.06
2022-08-09T17:46:03.069Z,100662.84
2022-08-09T17:48:33.292Z,100670.00
2022-08-09T17:51:09.786Z,100676.38
2022-08-09T17:53:53.436Z,100670.56
2022-08-09T17:56:27.647Z,100666.25
2022-08-09T17:59:09.057Z,100665.88
2022-08-09T18:02:12.837Z,100673.41
2022-08-09T18:04:54.291Z,100675.94
2022-08-09T18:10:15.367Z,100679.84
2022-08-09T18:13:54.303Z,100676.03
2022-08-09T18:16:05.080Z,100679.28
2022-08-09T18:18:43.261Z,100686.41
2022-08-09T18:21:24.218Z,100684.19
2022-08-09T18:24:12.672Z,100683.66
2022-08-09T18:26:49.389Z,100675.81
2022-08-09T18:30:38.192Z,100676.69
2022-08-09T18:32:19.310Z,100676.69
2022-08-09T18:37:48.940Z,100683.34
2022-08-09T18:40:27.080Z,100681.28
2022-08-09T18:46:45.944Z,100681.06
2022-08-09T18:48:42.386Z,100675.19
2022-08-09T18:51:13.359Z,100670.97
2022-08-09T18:53:59.655Z,100670.88
2022-08-09T18:56:41.895Z,100671.53
2022-08-09T18:59:12.886Z,100682.63
2022-08-09T19:02:06.619Z,100676.25
2022-08-09T19:04:43.349Z,100675.19
2022-08-09T19:07:17.626Z,100671.50
2022-08-09T19:10:14.121Z,100673.84
2022-08-09T19:12:37.305Z,100686.00
2022-08-09T19:15:32.930Z,100678.06
2022-08-09T19:18:06.740Z,100678.47
2022-08-09T19:20:58.506Z,100668.28
2022-08-09T19:24:38.055Z,100675.56
2022-08-09T19:26:42.508Z,100668.59
2022-08-09T19:29:21.643Z,100671.16
2022-08-09T19:31:59.719Z,100671.16
2022-08-09T19:34:30.157Z,100661.84
2022-08-09T19:37:00.278Z,100670.81
2022-08-09T19:39:43.569Z,100664.00
2022-08-09T19:44:59.749Z,100673.84
2022-08-09T19:47:53.132Z,100669.41
2022-08-09T19:50:50.452Z,100664.28
2022-08-09T19:53:30.527Z,100672.78
2022-08-09T19:56:29.106Z,100668.31
2022-08-09T19:59:18.298Z,100673.66
2022-08-09T20:04:07.140Z,100666.94
2022-08-09T20:05:46.824Z,100670.97
2022-08-09T20:08:34.801Z,100664.66
2022-08-09T20:11:21.448Z,100668.69
2022-08-09T20:13:59.919Z,100674.63
2022-08-09T20:19:48.668Z,100658.91
2022-08-09T20:22:09.885Z,100661.91
2022-08-09T20:24:40.844Z,100667.22
2022-08-09T20:27:17.743Z,100670.16
2022-08-09T20:29:46.346Z,100669.97
2022-08-09T20:32:33.270Z,100667.22
2022-08-09T20:35:09.204Z,100674.63
2022-08-09T20:38:22.043Z,100668.28
2022-08-09T20:40:32.240Z,100670.00
2022-08-09T20:46:33.706Z,100666.59
2022-08-09T20:49:06.722Z,100663.00
2022-08-09T20:51:55.222Z,100662.16
2022-08-09T20:54:26.279Z,100654.72
2022-08-09T20:57:32.339Z,100653.44
2022-08-09T21:00:20.962Z,100656.84
2022-08-09T21:02:51.717Z,100658.31
2022-08-09T21:05:59.523Z,100650.00
2022-08-09T21:08:36.570Z,100655.72
2022-08-09T21:14:00.462Z,100651.91
2022-08-09T21:16:38.138Z,100648.09
2022-08-09T21:20:17.591Z,100649.13
2022-08-09T21:22:04.676Z,100647.25
2022-08-09T21:25:12.708Z,100646.81
2022-08-09T21:27:52.094Z,100638.56
2022-08-09T21:30:22.497Z,100645.09
2022-08-09T21:32:53.587Z,100636.09
2022-08-09T21:35:22.034Z,100637.88
2022-08-09T21:37:59.499Z,100646.81
2022-08-09T21:40:32.620Z,100642.44
2022-08-09T21:43:01.461Z,100644.03
2022-08-09T21:45:29.655Z,100640.66
2022-08-09T21:47:59.220Z,100640.00
2022-08-09T21:50:36.061Z,100640.53
2022-08-09T21:53:24.069Z,100633.97
2022-08-09T21:55:56.549Z,100631.81
2022-08-09T21:58:31.185Z,100621.56
2022-08-09T22:00:59.384Z,100625.34
2022-08-09T22:03:28.014Z,100627.00
2022-08-09T22:05:57.896Z,100629.09
2022-08-09T22:08:27.772Z,100632.03
2022-08-09T22:11:49.389Z,100627.13
2022-08-09T22:13:46.118Z,100627.56
2022-08-09T22:16:13.560Z,100628.16
2022-08-09T22:18:52.148Z,100622.22
2022-08-09T22:21:44.629Z,100629.34
2022-08-09T22:24:17.133Z,100625.50
2022-08-09T22:26:51.670Z,100625.28
2022-08-09T22:29:26.794Z,100621.22
2022-08-09T22:32:00.056Z,100620.16
2022-08-09T22:34:28.986Z,100618.44
2022-08-09T22:36:57.545Z,100619.03
2022-08-09T22:39:55.742Z,100617.34
2022-08-09T22:42:21.402Z,100621.53
2022-08-09T22:48:04.654Z,100612.63
2022-08-09T22:48:15.524Z,100619.59
2022-08-09T22:50:32.793Z,100623.19
2022-08-09T22:53:03.756Z,100614.28
2022-08-09T22:56:06.140Z,100614.50
2022-08-09T22:58:32.542Z,100610.25
2022-08-09T23:01:05.897Z,100603.44
2022-08-09T23:04:05.287Z,100609.16
2022-08-09T23:06:30.318Z,100608.69
2022-08-09T23:09:07.985Z,100609.06
2022-08-09T23:11:37.306Z,100605.47
2022-08-09T23:14:17.365Z,100602.09
2022-08-09T23:16:45.564Z,100604.16
2022-08-09T23:19:13.207Z,100598.66
2022-08-09T23:21:41.866Z,100597.19
2022-08-09T23:24:09.601Z,100602.84
2022-08-09T23:26:39.111Z,100600.97
2022-08-09T23:29:08.033Z,100591.25
2022-08-09T23:31:35.639Z,100584.44
2022-08-09T23:34:04.360Z,100593.75
2022-08-09T23:36:33.039Z,100585.22
2022-08-09T23:39:02.082Z,100590.06
2022-08-09T23:41:30.024Z,100583.50
2022-08-09T23:44:01.068Z,100581.31
2022-08-09T23:46:29.886Z,100592.03
2022-08-09T23:48:58.517Z,100578.91
2022-08-09T23:51:26.471Z,100582.03
2022-08-09T23:53:55.457Z,100575.25
2022-08-09T23:56:53.465Z,100578.56
2022-08-09T23:59:18.177Z,100578.78
